Time;durP1;ratioP1;P1;durP2;ratioP2;P2;SDS_P1;SDS_P2;PMS_P1;PMS_P2;Temp;Humidity;BMP_temperature;BMP_pressure;BME280_temperature;BME280_humidity;BME280_pressure;Samples;Min_cycle;Max_cycle;Signal;HPM_P1;HPM_P2
2022/01/06 00:00:57;;;;;;;16.23;5.33;;;;;;;;;;4987385;28;20214;-82
2022/01/06 00:03:26;;;;;;;20.90;5.53;;;;;;;;;;4987152;28;20194;-81
2022/01/06 00:05:53;;;;;;;20.50;5.33;;;;;;;;;;4985747;28;20204;-83
2022/01/06 00:08:20;;;;;;;15.67;4.60;;;;;;;;;;4990934;28;20247;-85
2022/01/06 00:10:49;;;;;;;20.33;5.60;;;;;;;;;;4991931;28;20216;-82
2022/01/06 00:13:25;;;;;;;16.17;6.43;;;;;;;;;;4986931;28;20236;-81
2022/01/06 00:16:11;;;;;;;18.43;4.80;;;;;;;;;;4983537;28;20217;-82
2022/01/06 00:23:06;;;;;;;19.67;4.93;;;;;;;;;;4984825;28;20729;-82
2022/01/06 00:24:18;;;;;;;21.93;4.60;;;;;;;;;;4987406;28;20829;-82
2022/01/06 00:26:45;;;;;;;22.90;5.03;;;;;;;;;;4992064;28;20209;-82
2022/01/06 00:29:13;;;;;;;19.80;4.77;;;;;;;;;;4989828;28;20225;-83
2022/01/06 00:31:42;;;;;;;18.33;5.00;;;;;;;;;;4992324;28;20205;-82
2022/01/06 00:34:10;;;;;;;20.67;5.33;;;;;;;;;;4992607;28;20232;-82
2022/01/06 00:36:38;;;;;;;21.40;5.00;;;;;;;;;;4992572;28;20268;-82
2022/01/06 00:39:05;;;;;;;18.97;4.73;;;;;;;;;;4989010;28;20251;-82
2022/01/06 00:41:36;;;;;;;25.93;5.50;;;;;;;;;;4990847;28;20206;-83
2022/01/06 00:44:04;;;;;;;26.17;4.77;;;;;;;;;;4990944;28;20239;-82
2022/01/06 00:46:32;;;;;;;20.77;4.83;;;;;;;;;;4982097;28;20193;-83
2022/01/06 00:49:00;;;;;;;21.17;5.20;;;;;;;;;;4987646;28;20232;-82
2022/01/06 00:51:28;;;;;;;20.53;4.57;;;;;;;;;;4987146;28;20208;-82
2022/01/06 00:53:56;;;;;;;22.67;4.40;;;;;;;;;;4985719;28;20233;-83
2022/01/06 00:56:30;;;;;;;17.53;4.90;;;;;;;;;;4992539;28;20197;-83
2022/01/06 00:58:57;;;;;;;21.00;5.17;;;;;;;;;;4991410;28;20232;-83
2022/01/06 01:01:25;;;;;;;22.53;4.87;;;;;;;;;;4988393;28;20213;-83
2022/01/06 01:03:52;;;;;;;20.90;4.80;;;;;;;;;;4987726;28;20205;-83
2022/01/06 01:06:20;;;;;;;15.33;5.70;;;;;;;;;;4989939;28;20205;-83
2022/01/06 01:08:48;;;;;;;25.73;5.27;;;;;;;;;;4989172;28;20323;-84
2022/01/06 01:11:16;;;;;;;19.43;4.50;;;;;;;;;;4991397;28;20239;-83
2022/01/06 01:13:54;;;;;;;23.43;4.93;;;;;;;;;;4985455;28;20340;-82
2022/01/06 01:16:26;;;;;;;14.37;4.67;;;;;;;;;;4991673;28;20357;-83
2022/01/06 01:18:56;;;;;;;31.00;6.00;;;;;;;;;;4986072;28;20220;-83
2022/01/06 01:21:27;;;;;;;23.37;4.73;;;;;;;;;;4989896;28;20267;-82
2022/01/06 01:23:54;;;;;;;18.83;4.43;;;;;;;;;;4986378;28;20697;-83
2022/01/06 01:26:21;;;;;;;30.63;5.00;;;;;;;;;;4990912;28;21026;-83
2022/01/06 01:28:50;;;;;;;18.87;5.17;;;;;;;;;;4989879;28;20648;-82
2022/01/06 01:31:25;;;;;;;23.27;4.57;;;;;;;;;;4997025;28;20287;-84
2022/01/06 01:33:56;;;;;;;22.20;5.07;;;;;;;;;;4992950;28;20220;-83
2022/01/06 01:36:24;;;;;;;17.10;4.30;;;;;;;;;;4993523;28;20209;-84
2022/01/06 01:38:52;;;;;;;16.60;4.53;;;;;;;;;;4990376;28;20769;-83
2022/01/06 01:41:19;;;;;;;22.23;5.30;;;;;;;;;;4987367;28;21312;-83
2022/01/06 01:43:47;;;;;;;16.17;4.50;;;;;;;;;;4987337;28;20260;-83
2022/01/06 01:46:17;;;;;;;23.87;5.00;;;;;;;;;;4988945;28;20211;-83
2022/01/06 01:48:49;;;;;;;21.73;4.77;;;;;;;;;;4985325;28;20231;-82
2022/01/06 01:51:16;;;;;;;20.90;5.60;;;;;;;;;;4989163;28;20209;-83
2022/01/06 01:53:45;;;;;;;18.87;4.87;;;;;;;;;;4989961;28;20221;-83
2022/01/06 01:56:14;;;;;;;14.50;4.70;;;;;;;;;;4986135;28;20202;-82
2022/01/06 01:58:42;;;;;;;18.80;4.40;;;;;;;;;;4986707;28;20236;-83
2022/01/06 02:01:09;;;;;;;22.77;4.30;;;;;;;;;;4986260;28;20233;-83
2022/01/06 02:03:37;;;;;;;17.17;4.57;;;;;;;;;;4990860;28;20231;-83
2022/01/06 02:06:06;;;;;;;24.73;5.07;;;;;;;;;;4992483;28;20235;-84
2022/01/06 02:08:33;;;;;;;21.40;5.50;;;;;;;;;;4986361;28;20224;-82
2022/01/06 02:11:02;;;;;;;19.57;5.00;;;;;;;;;;4985220;28;20268;-83
2022/01/06 02:13:30;;;;;;;21.03;4.23;;;;;;;;;;4984618;28;20222;-83
2022/01/06 02:15:58;;;;;;;18.90;5.00;;;;;;;;;;4987712;28;20209;-82
2022/01/06 02:18:27;;;;;;;15.47;4.23;;;;;;;;;;4992107;28;20232;-82
2022/01/06 02:20:56;;;;;;;16.83;4.83;;;;;;;;;;4989895;28;20212;-82
2022/01/06 02:23:23;;;;;;;19.23;4.13;;;;;;;;;;4992945;28;20207;-82
2022/01/06 02:25:50;;;;;;;18.83;5.70;;;;;;;;;;4991066;28;20636;-81
2022/01/06 02:28:18;;;;;;;20.27;4.73;;;;;;;;;;4991683;28;20248;-82
2022/01/06 02:30:49;;;;;;;26.47;5.20;;;;;;;;;;4992543;28;20209;-82
2022/01/06 02:33:17;;;;;;;26.60;5.00;;;;;;;;;;4988220;28;20210;-83
2022/01/06 02:35:44;;;;;;;16.60;4.30;;;;;;;;;;4990101;28;20616;-83
2022/01/06 02:38:13;;;;;;;25.03;5.53;;;;;;;;;;4994807;28;20269;-82
2022/01/06 02:40:40;;;;;;;23.97;4.87;;;;;;;;;;4989963;28;20204;-82
2022/01/06 02:43:07;;;;;;;15.77;4.90;;;;;;;;;;4989084;28;20231;-82
2022/01/06 02:45:35;;;;;;;18.13;5.10;;;;;;;;;;4989149;28;20284;-81
2022/01/06 02:48:08;;;;;;;20.53;4.77;;;;;;;;;;4989969;28;20239;-83
2022/01/06 02:50:36;;;;;;;16.77;4.20;;;;;;;;;;4991277;28;20275;-82
2022/01/06 02:53:03;;;;;;;16.73;4.53;;;;;;;;;;4989802;28;20209;-82
2022/01/06 02:55:32;;;;;;;15.07;4.00;;;;;;;;;;4985756;28;20706;-82
2022/01/06 02:57:59;;;;;;;23.00;4.43;;;;;;;;;;4990338;28;20283;-83
2022/01/06 03:00:26;;;;;;;16.03;4.43;;;;;;;;;;4988919;28;20193;-82
2022/01/06 03:02:53;;;;;;;32.73;4.77;;;;;;;;;;4985239;28;20252;-83
2022/01/06 03:05:21;;;;;;;18.33;4.20;;;;;;;;;;4988291;28;20200;-83
2022/01/06 03:07:48;;;;;;;15.77;4.53;;;;;;;;;;4999893;23;20347;-81
2022/01/06 03:10:16;;;;;;;19.40;4.13;;;;;;;;;;5004940;28;20204;-81
2022/01/06 03:12:45;;;;;;;20.73;5.13;;;;;;;;;;5001103;28;20209;-81
2022/01/06 03:15:13;;;;;;;21.60;5.23;;;;;;;;;;5003179;28;20229;-81
2022/01/06 03:17:41;;;;;;;15.27;4.93;;;;;;;;;;5004468;28;20196;-81
2022/01/06 03:20:09;;;;;;;21.43;5.03;;;;;;;;;;4990598;28;20201;-81
2022/01/06 03:22:36;;;;;;;30.00;5.30;;;;;;;;;;4987371;28;20209;-82
2022/01/06 03:25:04;;;;;;;17.03;4.47;;;;;;;;;;4989248;28;20302;-81
2022/01/06 03:27:31;;;;;;;14.83;5.00;;;;;;;;;;4990598;28;20212;-82
2022/01/06 03:30:00;;;;;;;22.43;4.73;;;;;;;;;;4988575;28;20296;-82
2022/01/06 03:32:27;;;;;;;20.77;5.30;;;;;;;;;;4984736;28;20201;-82
2022/01/06 03:34:54;;;;;;;21.53;4.77;;;;;;;;;;4987390;28;20249;-83
2022/01/06 03:37:21;;;;;;;20.83;4.73;;;;;;;;;;4989558;28;20284;-82
2022/01/06 03:39:49;;;;;;;19.20;4.60;;;;;;;;;;4988731;28;20221;-82
2022/01/06 03:42:16;;;;;;;16.90;4.70;;;;;;;;;;4992677;28;20207;-81
2022/01/06 03:44:43;;;;;;;21.77;4.77;;;;;;;;;;4987891;28;20197;-82
2022/01/06 03:47:12;;;;;;;19.70;4.63;;;;;;;;;;4991598;28;20213;-82
2022/01/06 03:49:39;;;;;;;20.67;5.13;;;;;;;;;;4988287;28;20575;-81
2022/01/06 03:52:07;;;;;;;15.77;5.07;;;;;;;;;;4988530;28;20759;-81
2022/01/06 03:54:34;;;;;;;24.30;5.17;;;;;;;;;;4985317;28;20233;-81
2022/01/06 03:57:01;;;;;;;21.83;5.23;;;;;;;;;;4986868;28;20209;-81
2022/01/06 03:59:28;;;;;;;25.23;4.87;;;;;;;;;;4992634;28;20221;-81
2022/01/06 04:01:56;;;;;;;21.37;5.20;;;;;;;;;;4992088;28;20197;-81
2022/01/06 04:04:24;;;;;;;31.50;5.40;;;;;;;;;;4986706;28;20193;-83
2022/01/06 04:06:51;;;;;;;13.13;5.00;;;;;;;;;;4985449;28;20609;-82
2022/01/06 04:09:18;;;;;;;30.67;6.23;;;;;;;;;;4989572;28;20901;-82
2022/01/06 04:11:46;;;;;;;22.33;5.43;;;;;;;;;;4990155;28;20217;-83
2022/01/06 04:14:13;;;;;;;18.40;5.10;;;;;;;;;;4987728;28;20293;-83
2022/01/06 04:16:40;;;;;;;17.87;5.70;;;;;;;;;;4987472;28;20209;-82
2022/01/06 04:19:09;;;;;;;20.47;5.30;;;;;;;;;;4988653;28;20479;-83
2022/01/06 04:21:37;;;;;;;20.50;6.70;;;;;;;;;;4989555;28;20658;-82
2022/01/06 04:24:04;;;;;;;16.90;6.00;;;;;;;;;;4988384;28;20206;-81
2022/01/06 04:26:32;;;;;;;22.43;5.87;;;;;;;;;;4995203;28;20206;-81
2022/01/06 04:28:59;;;;;;;22.10;6.33;;;;;;;;;;4987842;28;20240;-82
2022/01/06 04:31:26;;;;;;;26.10;6.37;;;;;;;;;;4989015;28;20298;-81
2022/01/06 04:33:53;;;;;;;30.83;7.10;;;;;;;;;;4983652;28;20201;-81
2022/01/06 04:36:21;;;;;;;20.57;6.23;;;;;;;;;;4990055;28;20224;-84
2022/01/06 04:38:49;;;;;;;20.60;5.83;;;;;;;;;;4984449;28;20690;-82
2022/01/06 04:41:16;;;;;;;24.13;6.90;;;;;;;;;;4988799;28;20236;-81
2022/01/06 04:43:44;;;;;;;25.03;6.70;;;;;;;;;;4983889;28;21184;-82
2022/01/06 04:46:11;;;;;;;28.23;7.30;;;;;;;;;;4989158;28;20209;-83
2022/01/06 04:48:38;;;;;;;29.37;7.10;;;;;;;;;;4988293;28;20311;-82
2022/01/06 04:51:05;;;;;;;32.70;7.10;;;;;;;;;;4992181;28;20570;-81
2022/01/06 04:53:32;;;;;;;25.33;6.33;;;;;;;;;;4989089;28;20201;-82
2022/01/06 04:56:01;;;;;;;20.47;7.40;;;;;;;;;;4993682;28;20311;-82
2022/01/06 04:58:29;;;;;;;26.63;7.43;;;;;;;;;;4992393;28;20309;-81
2022/01/06 05:01:31;;;;;;;26.27;7.43;;;;;;;;;;4988146;28;20611;-82
2022/01/06 05:03:58;;;;;;;29.80;7.40;;;;;;;;;;4992441;28;20223;-83
2022/01/06 05:06:25;;;;;;;22.50;7.70;;;;;;;;;;4986226;28;20296;-82
2022/01/06 05:08:52;;;;;;;25.07;7.43;;;;;;;;;;4986070;28;20244;-82
2022/01/06 05:11:21;;;;;;;21.97;6.67;;;;;;;;;;4989606;28;20252;-82
2022/01/06 05:13:48;;;;;;;14.23;5.40;;;;;;;;;;4989374;28;20676;-81
2022/01/06 05:16:15;;;;;;;21.17;6.40;;;;;;;;;;4989851;28;20225;-83
2022/01/06 05:18:43;;;;;;;17.03;5.87;;;;;;;;;;4988885;28;20284;-82
2022/01/06 05:21:10;;;;;;;26.47;6.00;;;;;;;;;;4988004;28;20214;-82
2022/01/06 05:23:38;;;;;;;17.10;6.00;;;;;;;;;;4987848;28;20204;-82
2022/01/06 05:26:06;;;;;;;15.47;6.03;;;;;;;;;;4989881;28;20287;-82
2022/01/06 05:28:34;;;;;;;21.30;6.43;;;;;;;;;;4988025;28;20280;-83
2022/01/06 05:31:02;;;;;;;18.40;6.67;;;;;;;;;;4991427;28;20215;-82
2022/01/06 05:33:29;;;;;;;16.53;6.23;;;;;;;;;;4988319;28;20201;-82
2022/01/06 05:35:56;;;;;;;26.57;6.73;;;;;;;;;;4988823;28;20334;-82
2022/01/06 05:38:23;;;;;;;18.13;6.63;;;;;;;;;;4988865;28;20225;-81
2022/01/06 05:40:50;;;;;;;21.37;6.90;;;;;;;;;;4985599;28;20208;-82
2022/01/06 05:43:19;;;;;;;30.13;7.90;;;;;;;;;;4988814;28;20200;-83
2022/01/06 05:45:48;;;;;;;28.47;7.43;;;;;;;;;;4990169;28;20219;-82
2022/01/06 05:48:15;;;;;;;24.40;7.00;;;;;;;;;;4982547;28;20237;-82
2022/01/06 05:50:43;;;;;;;25.57;7.53;;;;;;;;;;4984024;28;20239;-83
2022/01/06 05:53:10;;;;;;;22.10;7.43;;;;;;;;;;4992367;28;20216;-82
2022/01/06 05:55:37;;;;;;;16.30;7.53;;;;;;;;;;4991676;28;20222;-81
2022/01/06 05:58:04;;;;;;;25.57;7.50;;;;;;;;;;4991177;28;20226;-82
2022/01/06 06:00:31;;;;;;;23.73;6.73;;;;;;;;;;4986955;28;20214;-82
2022/01/06 06:03:00;;;;;;;19.00;7.00;;;;;;;;;;4992141;28;20662;-82
2022/01/06 06:05:27;;;;;;;18.37;6.47;;;;;;;;;;4988720;28;20206;-82
2022/01/06 06:07:54;;;;;;;20.47;6.17;;;;;;;;;;4986950;28;20237;-81
2022/01/06 06:10:21;;;;;;;14.67;5.83;;;;;;;;;;4989485;28;20581;-81
2022/01/06 06:12:52;;;;;;;22.73;6.57;;;;;;;;;;4990654;28;20212;-83
2022/01/06 06:15:19;;;;;;;16.80;6.13;;;;;;;;;;4993943;28;20217;-82
2022/01/06 06:17:47;;;;;;;17.77;6.80;;;;;;;;;;5000035;28;20205;-82
2022/01/06 06:20:16;;;;;;;22.77;7.57;;;;;;;;;;4995335;28;20203;-84
2022/01/06 06:22:43;;;;;;;17.07;6.37;;;;;;;;;;4992194;28;20205;-83
2022/01/06 06:25:10;;;;;;;15.17;6.60;;;;;;;;;;4994235;28;20268;-83
2022/01/06 06:27:37;;;;;;;20.80;6.93;;;;;;;;;;4993342;28;20224;-84
2022/01/06 06:30:05;;;;;;;19.17;7.83;;;;;;;;;;4993852;28;20523;-83
2022/01/06 06:32:33;;;;;;;20.90;8.17;;;;;;;;;;4988624;28;20201;-82
2022/01/06 06:35:01;;;;;;;18.60;7.10;;;;;;;;;;4992389;28;20612;-82
2022/01/06 06:37:29;;;;;;;23.53;8.27;;;;;;;;;;4988203;28;20212;-82
2022/01/06 06:39:57;;;;;;;24.47;8.20;;;;;;;;;;4990763;28;20201;-81
2022/01/06 06:42:24;;;;;;;28.70;8.53;;;;;;;;;;4986390;28;20201;-82
2022/01/06 06:44:51;;;;;;;26.53;8.60;;;;;;;;;;4988314;28;20640;-82
2022/01/06 06:47:18;;;;;;;35.23;9.03;;;;;;;;;;4990003;28;20304;-82
2022/01/06 06:49:46;;;;;;;25.03;8.83;;;;;;;;;;4993079;28;20794;-82
2022/01/06 06:52:13;;;;;;;31.50;8.73;;;;;;;;;;4992662;28;20240;-81
2022/01/06 06:54:41;;;;;;;21.93;8.03;;;;;;;;;;4984157;28;20741;-83
2022/01/06 06:57:09;;;;;;;29.50;8.30;;;;;;;;;;4991857;28;20212;-82
2022/01/06 06:59:36;;;;;;;41.47;9.13;;;;;;;;;;4992820;28;20292;-84
2022/01/06 07:02:03;;;;;;;35.33;9.40;;;;;;;;;;4987247;28;20213;-82
2022/01/06 07:04:30;;;;;;;25.73;8.37;;;;;;;;;;4990543;28;20212;-85
2022/01/06 07:06:58;;;;;;;26.83;9.07;;;;;;;;;;4993072;28;20224;-82
2022/01/06 07:09:25;;;;;;;39.13;10.53;;;;;;;;;;4982805;28;20236;-82
2022/01/06 07:11:53;;;;;;;37.40;9.73;;;;;;;;;;4990698;28;20708;-82
2022/01/06 07:14:20;;;;;;;22.10;8.33;;;;;;;;;;4987258;28;20209;-83
2022/01/06 07:16:48;;;;;;;35.87;10.40;;;;;;;;;;4989782;28;20252;-82
2022/01/06 07:19:15;;;;;;;26.80;8.47;;;;;;;;;;4986905;28;20228;-81
2022/01/06 07:21:42;;;;;;;30.27;9.20;;;;;;;;;;4986121;28;20209;-82
2022/01/06 07:24:09;;;;;;;27.80;9.07;;;;;;;;;;4988490;28;20197;-84
2022/01/06 07:26:36;;;;;;;30.03;9.77;;;;;;;;;;4987669;28;20202;-83
2022/01/06 07:29:05;;;;;;;31.27;8.93;;;;;;;;;;4990471;28;20229;-85
2022/01/06 07:31:32;;;;;;;25.83;9.07;;;;;;;;;;4992125;28;20334;-84
2022/01/06 07:33:59;;;;;;;34.40;9.47;;;;;;;;;;4989109;28;20210;-83
2022/01/06 07:36:27;;;;;;;30.30;9.37;;;;;;;;;;4990479;28;20231;-84
2022/01/06 07:38:54;;;;;;;30.27;10.27;;;;;;;;;;4987460;28;20229;-81
2022/01/06 07:41:21;;;;;;;25.13;9.20;;;;;;;;;;4989556;28;20205;-81
2022/01/06 07:43:48;;;;;;;27.53;9.27;;;;;;;;;;4988547;28;20205;-82
2022/01/06 07:46:17;;;;;;;26.63;8.90;;;;;;;;;;4989038;28;20291;-83
2022/01/06 07:48:55;;;;;;;44.37;9.93;;;;;;;;;;4987731;28;20414;-82
2022/01/06 07:51:23;;;;;;;24.30;9.27;;;;;;;;;;4986987;28;20236;-83
2022/01/06 07:53:50;;;;;;;31.40;9.67;;;;;;;;;;4989522;28;20213;-85
2022/01/06 07:56:17;;;;;;;30.23;9.37;;;;;;;;;;4994397;28;20235;-83
2022/01/06 07:58:44;;;;;;;38.27;10.03;;;;;;;;;;4993336;28;20790;-85
2022/01/06 08:01:12;;;;;;;32.80;9.07;;;;;;;;;;4991193;28;20205;-83
2022/01/06 08:03:40;;;;;;;36.53;10.33;;;;;;;;;;4988504;28;20216;-84
2022/01/06 08:06:08;;;;;;;31.50;10.60;;;;;;;;;;4986130;28;20205;-82
2022/01/06 08:08:35;;;;;;;37.23;10.90;;;;;;;;;;4983564;28;20237;-81
2022/01/06 08:11:02;;;;;;;36.87;10.77;;;;;;;;;;4986025;28;20197;-83
2022/01/06 08:13:29;;;;;;;29.30;10.23;;;;;;;;;;4984974;28;20296;-82
2022/01/06 08:15:56;;;;;;;39.93;10.63;;;;;;;;;;4982964;28;20240;-82
2022/01/06 08:18:24;;;;;;;41.13;11.77;;;;;;;;;;4988569;28;20239;-81
2022/01/06 08:20:52;;;;;;;34.03;9.70;;;;;;;;;;4994351;28;20337;-82
2022/01/06 08:23:19;;;;;;;31.30;11.03;;;;;;;;;;4985931;28;20633;-82
2022/01/06 08:25:47;;;;;;;30.50;8.97;;;;;;;;;;4987001;28;20208;-82
2022/01/06 08:28:14;;;;;;;30.50;11.20;;;;;;;;;;4990472;28;20725;-81
2022/01/06 08:30:41;;;;;;;32.97;10.97;;;;;;;;;;4990600;28;20215;-83
2022/01/06 08:33:10;;;;;;;33.53;10.90;;;;;;;;;;4988482;28;20311;-83
2022/01/06 08:35:37;;;;;;;32.60;10.97;;;;;;;;;;4995720;28;20635;-83
2022/01/06 08:38:06;;;;;;;24.97;8.87;;;;;;;;;;4992014;28;20377;-83
2022/01/06 08:40:33;;;;;;;37.67;9.87;;;;;;;;;;4991009;28;20205;-82
2022/01/06 08:43:00;;;;;;;30.40;9.90;;;;;;;;;;4995832;28;20212;-84
2022/01/06 08:45:28;;;;;;;34.23;9.97;;;;;;;;;;4989765;28;20227;-84
2022/01/06 08:47:55;;;;;;;31.63;10.43;;;;;;;;;;4996509;28;20331;-82
2022/01/06 08:50:22;;;;;;;25.93;9.50;;;;;;;;;;4989777;28;20209;-82
2022/01/06 08:52:51;;;;;;;32.80;10.77;;;;;;;;;;4983753;28;20281;-82
2022/01/06 08:55:19;;;;;;;30.90;9.53;;;;;;;;;;4994691;28;20223;-84
2022/01/06 08:57:46;;;;;;;27.17;10.03;;;;;;;;;;4990143;28;20229;-82
2022/01/06 09:00:14;;;;;;;24.33;10.17;;;;;;;;;;4986905;28;20205;-82
2022/01/06 09:02:41;;;;;;;20.60;9.40;;;;;;;;;;4993883;28;20212;-84
2022/01/06 09:05:10;;;;;;;25.17;9.23;;;;;;;;;;4990695;28;20391;-83
2022/01/06 09:07:37;;;;;;;24.10;8.73;;;;;;;;;;4986959;28;20201;-82
2022/01/06 09:10:04;;;;;;;40.53;9.50;;;;;;;;;;5013862;23;20233;-77
2022/01/06 09:12:33;;;;;;;33.17;8.90;;;;;;;;;;4978116;28;20204;-78
2022/01/06 09:15:00;;;;;;;32.40;8.97;;;;;;;;;;4984027;28;20296;-79
2022/01/06 09:17:27;;;;;;;33.40;8.90;;;;;;;;;;4980387;28;20232;-78
2022/01/06 09:19:54;;;;;;;31.90;8.67;;;;;;;;;;4976801;28;20284;-81
2022/01/06 09:22:22;;;;;;;24.63;7.47;;;;;;;;;;4981431;28;20281;-79
2022/01/06 09:24:49;;;;;;;25.70;7.73;;;;;;;;;;4979401;28;20216;-78
2022/01/06 09:27:16;;;;;;;19.00;7.27;;;;;;;;;;4981423;28;20224;-79
2022/01/06 09:29:45;;;;;;;26.10;8.00;;;;;;;;;;4981494;28;20215;-80
2022/01/06 09:32:12;;;;;;;38.37;8.50;;;;;;;;;;4978571;28;20716;-79
2022/01/06 09:34:39;;;;;;;23.17;7.97;;;;;;;;;;4981882;28;20308;-77
2022/01/06 09:37:07;;;;;;;25.17;8.20;;;;;;;;;;4975829;28;20243;-77
2022/01/06 09:39:34;;;;;;;21.27;7.47;;;;;;;;;;4980098;28;20208;-80
2022/01/06 09:42:01;;;;;;;23.60;7.33;;;;;;;;;;4978057;28;20215;-75
2022/01/06 09:44:28;;;;;;;24.27;7.17;;;;;;;;;;4977775;28;20204;-77
2022/01/06 09:46:57;;;;;;;30.53;7.93;;;;;;;;;;4973041;28;20730;-75
2022/01/06 09:49:24;;;;;;;20.77;6.50;;;;;;;;;;4976637;28;20653;-75
2022/01/06 09:51:52;;;;;;;26.27;7.60;;;;;;;;;;4977159;28;20284;-75
2022/01/06 09:54:20;;;;;;;23.73;7.53;;;;;;;;;;4975819;28;20665;-75
2022/01/06 09:56:47;;;;;;;26.73;7.53;;;;;;;;;;4971290;28;20419;-76
2022/01/06 09:59:14;;;;;;;26.10;7.17;;;;;;;;;;4976167;28;20206;-75
2022/01/06 10:01:41;;;;;;;26.93;7.43;;;;;;;;;;4972482;28;20292;-76
2022/01/06 10:04:19;;;;;;;19.10;7.27;;;;;;;;;;4971911;28;20205;-76
2022/01/06 10:06:57;;;;;;;22.13;7.53;;;;;;;;;;4978365;28;20720;-77
2022/01/06 10:09:25;;;;;;;26.00;7.70;;;;;;;;;;4974466;28;20223;-77
2022/01/06 10:11:55;;;;;;;21.07;7.33;;;;;;;;;;4976142;28;20217;-77
2022/01/06 10:14:30;;;;;;;23.37;7.43;;;;;;;;;;4978603;28;20574;-76
2022/01/06 10:16:58;;;;;;;28.40;7.17;;;;;;;;;;4971870;28;20287;-75
2022/01/06 10:19:27;;;;;;;23.47;7.20;;;;;;;;;;4975861;28;20245;-76
2022/01/06 10:21:57;;;;;;;25.40;7.43;;;;;;;;;;4972350;28;20723;-75
2022/01/06 10:24:26;;;;;;;20.80;5.87;;;;;;;;;;4972884;28;20679;-77
2022/01/06 10:26:54;;;;;;;13.93;5.97;;;;;;;;;;4977525;28;20673;-76
2022/01/06 10:29:21;;;;;;;18.77;5.90;;;;;;;;;;4975478;28;20213;-76
2022/01/06 10:31:49;;;;;;;19.83;6.17;;;;;;;;;;4974151;28;20208;-76
2022/01/06 10:34:16;;;;;;;18.07;5.73;;;;;;;;;;4979051;28;20208;-76
2022/01/06 10:36:48;;;;;;;19.80;5.47;;;;;;;;;;4974018;28;20268;-76
2022/01/06 10:39:15;;;;;;;15.20;5.33;;;;;;;;;;4977085;28;20206;-76
2022/01/06 10:41:42;;;;;;;16.60;5.10;;;;;;;;;;4978993;28;20213;-76
2022/01/06 10:44:12;;;;;;;23.27;6.43;;;;;;;;;;4975373;28;20228;-76
2022/01/06 10:46:40;;;;;;;22.33;5.47;;;;;;;;;;4977625;28;20341;-76
2022/01/06 10:49:08;;;;;;;15.77;4.97;;;;;;;;;;4976854;28;20205;-76
2022/01/06 10:51:37;;;;;;;16.20;5.50;;;;;;;;;;4977936;28;20579;-76
2022/01/06 10:54:10;;;;;;;18.03;5.90;;;;;;;;;;4976646;28;20288;-76
2022/01/06 10:56:37;;;;;;;22.57;7.00;;;;;;;;;;4977665;28;20752;-76
2022/01/06 10:59:05;;;;;;;24.47;6.00;;;;;;;;;;4976369;28;20669;-76
2022/01/06 11:01:33;;;;;;;23.30;6.60;;;;;;;;;;4977324;28;20198;-76
2022/01/06 11:04:00;;;;;;;20.73;6.23;;;;;;;;;;4974618;28;20234;-77
2022/01/06 11:06:28;;;;;;;17.00;6.00;;;;;;;;;;4976915;28;20329;-75
2022/01/06 11:08:55;;;;;;;14.03;4.07;;;;;;;;;;4973475;28;20216;-75
2022/01/06 11:14:09;;;;;;;29.43;7.17;;;;;;;;;;4977207;28;20295;-76
2022/01/06 11:16:36;;;;;;;15.83;6.07;;;;;;;;;;4979242;28;20328;-76
2022/01/06 11:19:05;;;;;;;14.17;5.70;;;;;;;;;;4975860;28;20749;-77
2022/01/06 11:21:34;;;;;;;15.20;5.30;;;;;;;;;;4978241;28;20225;-74
2022/01/06 11:24:02;;;;;;;16.17;5.70;;;;;;;;;;4977804;28;20405;-76
2022/01/06 11:26:31;;;;;;;22.90;5.93;;;;;;;;;;4981001;28;20232;-76
2022/01/06 11:28:59;;;;;;;16.27;5.33;;;;;;;;;;4977319;28;20222;-75
2022/01/06 11:31:27;;;;;;;19.57;4.97;;;;;;;;;;4977896;28;20586;-76
2022/01/06 11:33:56;;;;;;;13.13;4.20;;;;;;;;;;4974182;28;20688;-74
2022/01/06 11:36:25;;;;;;;15.80;5.10;;;;;;;;;;4977621;28;20232;-76
2022/01/06 11:38:53;;;;;;;10.43;4.30;;;;;;;;;;4976719;28;20288;-76
2022/01/06 11:41:20;;;;;;;15.37;3.97;;;;;;;;;;4975130;28;20208;-77
2022/01/06 11:43:49;;;;;;;18.17;4.50;;;;;;;;;;4978148;28;20641;-76
2022/01/06 11:46:17;;;;;;;12.00;3.93;;;;;;;;;;4975943;28;20237;-74
2022/01/06 11:48:48;;;;;;;11.77;4.20;;;;;;;;;;4979649;28;20666;-76
2022/01/06 11:51:26;;;;;;;10.03;4.50;;;;;;;;;;4981909;28;20219;-76
2022/01/06 11:53:53;;;;;;;10.53;4.53;;;;;;;;;;4977312;28;20696;-75
2022/01/06 11:56:21;;;;;;;16.90;4.13;;;;;;;;;;4982034;28;20611;-76
2022/01/06 11:58:59;;;;;;;13.90;4.70;;;;;;;;;;4980461;28;20206;-77
2022/01/06 12:01:26;;;;;;;18.73;5.03;;;;;;;;;;4977961;28;20296;-77
2022/01/06 12:03:53;;;;;;;18.07;5.53;;;;;;;;;;4983792;28;20251;-78
2022/01/06 12:06:25;;;;;;;11.60;5.40;;;;;;;;;;4982843;28;20324;-75
2022/01/06 12:08:52;;;;;;;19.30;4.80;;;;;;;;;;4977797;28;20241;-75
2022/01/06 12:11:23;;;;;;;14.97;4.50;;;;;;;;;;4978465;28;20804;-76
2022/01/06 12:13:51;;;;;;;10.27;4.07;;;;;;;;;;4973147;28;20323;-76
2022/01/06 12:16:26;;;;;;;14.33;3.67;;;;;;;;;;4974560;28;20224;-76
2022/01/06 12:18:54;;;;;;;10.57;3.97;;;;;;;;;;4974730;28;20204;-77
2022/01/06 12:21:21;;;;;;;13.53;4.10;;;;;;;;;;4969060;28;20272;-75
2022/01/06 12:23:48;;;;;;;17.07;4.93;;;;;;;;;;4974317;28;20213;-76
2022/01/06 12:26:16;;;;;;;13.03;4.40;;;;;;;;;;4971803;28;20233;-77
2022/01/06 12:28:47;;;;;;;17.33;4.93;;;;;;;;;;4971269;28;20565;-77
2022/01/06 12:31:21;;;;;;;13.90;4.40;;;;;;;;;;4977092;28;20263;-76
2022/01/06 12:33:50;;;;;;;13.50;4.50;;;;;;;;;;4974737;28;20397;-77
2022/01/06 12:36:18;;;;;;;16.90;4.83;;;;;;;;;;4982225;28;20873;-77
2022/01/06 12:38:45;;;;;;;13.63;4.43;;;;;;;;;;4975463;28;20205;-76
2022/01/06 12:41:13;;;;;;;16.23;4.27;;;;;;;;;;4977735;28;20209;-75
2022/01/06 12:43:42;;;;;;;16.33;4.80;;;;;;;;;;4976740;28;20308;-77
2022/01/06 12:46:11;;;;;;;15.60;4.30;;;;;;;;;;4973026;28;20232;-76
2022/01/06 12:48:39;;;;;;;16.80;4.10;;;;;;;;;;4973906;28;20295;-76
2022/01/06 12:51:09;;;;;;;15.33;4.50;;;;;;;;;;4977086;28;20241;-77
2022/01/06 12:53:37;;;;;;;13.87;4.50;;;;;;;;;;4974646;28;20665;-77
2022/01/06 12:56:05;;;;;;;15.70;4.93;;;;;;;;;;4980444;28;20712;-77
2022/01/06 12:58:33;;;;;;;14.37;4.63;;;;;;;;;;4975006;28;20241;-77
2022/01/06 13:01:01;;;;;;;23.57;4.70;;;;;;;;;;4983198;28;20618;-77
2022/01/06 13:03:29;;;;;;;17.30;5.17;;;;;;;;;;4976492;28;20248;-77
2022/01/06 13:05:56;;;;;;;17.23;5.03;;;;;;;;;;4981382;28;20681;-76
2022/01/06 13:08:25;;;;;;;21.10;7.13;;;;;;;;;;4980451;28;20219;-76
2022/01/06 13:11:02;;;;;;;18.67;5.47;;;;;;;;;;4972711;28;20219;-75
2022/01/06 13:13:29;;;;;;;14.53;5.10;;;;;;;;;;4973614;28;20573;-77
2022/01/06 13:15:56;;;;;;;18.40;5.13;;;;;;;;;;4977759;28;20225;-77
2022/01/06 13:18:27;;;;;;;22.67;7.47;;;;;;;;;;4974812;28;20233;-74
2022/01/06 13:20:59;;;;;;;20.10;6.40;;;;;;;;;;4978705;28;20209;-77
2022/01/06 13:23:43;;;;;;;16.77;5.20;;;;;;;;;;4979099;28;20263;-75
2022/01/06 13:26:11;;;;;;;24.33;8.07;;;;;;;;;;4977394;28;20243;-75
2022/01/06 13:28:38;;;;;;;26.83;10.53;;;;;;;;;;4983102;28;20208;-75
2022/01/06 13:31:17;;;;;;;20.63;6.03;;;;;;;;;;4978104;28;20212;-77
2022/01/06 13:33:53;;;;;;;23.83;4.90;;;;;;;;;;4976201;28;20304;-76
2022/01/06 13:36:27;;;;;;;21.27;5.40;;;;;;;;;;4976535;28;20737;-76
2022/01/06 13:39:05;;;;;;;13.77;4.90;;;;;;;;;;4973922;28;20229;-75
2022/01/06 13:41:33;;;;;;;16.50;3.97;;;;;;;;;;4967565;28;20550;-76
2022/01/06 13:44:05;;;;;;;16.70;5.17;;;;;;;;;;4976192;28;20439;-76
2022/01/06 13:46:41;;;;;;;16.43;4.50;;;;;;;;;;4969065;28;20347;-76
2022/01/06 13:51:54;;;;;;;12.73;4.67;;;;;;;;;;4974828;28;21583;-76
2022/01/06 13:54:22;;;;;;;15.83;5.17;;;;;;;;;;4972525;28;20289;-76
2022/01/06 13:56:50;;;;;;;15.37;4.50;;;;;;;;;;4972906;28;20644;-75
2022/01/06 13:59:17;;;;;;;13.13;4.17;;;;;;;;;;4973416;28;20308;-77
2022/01/06 14:01:45;;;;;;;22.07;4.80;;;;;;;;;;4972538;28;20205;-77
2022/01/06 14:04:17;;;;;;;24.53;5.20;;;;;;;;;;4973855;28;20216;-77
2022/01/06 14:06:44;;;;;;;19.40;4.80;;;;;;;;;;4974514;28;20287;-76
2022/01/06 14:09:11;;;;;;;17.50;4.60;;;;;;;;;;4978329;28;20212;-76
2022/01/06 14:11:40;;;;;;;19.77;5.40;;;;;;;;;;4975482;28;20205;-75
2022/01/06 14:14:07;;;;;;;23.17;5.23;;;;;;;;;;4976890;28;20206;-76
2022/01/06 14:16:34;;;;;;;23.70;6.07;;;;;;;;;;4977609;28;21009;-76
2022/01/06 14:19:01;;;;;;;29.73;7.53;;;;;;;;;;4977333;28;20682;-76
2022/01/06 14:21:29;;;;;;;23.03;6.20;;;;;;;;;;4979613;28;20231;-77
2022/01/06 14:23:56;;;;;;;20.57;5.30;;;;;;;;;;4979516;28;20201;-78
2022/01/06 14:26:23;;;;;;;22.93;5.50;;;;;;;;;;4978905;28;20777;-79
2022/01/06 14:28:52;;;;;;;23.17;5.07;;;;;;;;;;4979381;28;20291;-79
2022/01/06 14:31:19;;;;;;;29.47;9.60;;;;;;;;;;4976259;28;20848;-79
2022/01/06 14:33:46;;;;;;;20.07;5.83;;;;;;;;;;4972856;28;20401;-79
2022/01/06 14:36:13;;;;;;;25.93;7.03;;;;;;;;;;4980947;28;20238;-79
2022/01/06 14:38:42;;;;;;;35.63;10.10;;;;;;;;;;4977571;28;20893;-78
2022/01/06 14:41:09;;;;;;;21.37;5.10;;;;;;;;;;4976514;28;20201;-79
2022/01/06 14:43:36;;;;;;;22.67;7.03;;;;;;;;;;4975774;28;20662;-78